Time;durP1;ratioP1;P1;durP2;ratioP2;P2;SDS_P1;SDS_P2;PMS_P1;PMS_P2;Temp;Humidity;BMP_temperature;BMP_pressure;BME280_temperature;BME280_humidity;BME280_pressure;Samples;Min_cycle;Max_cycle;Signal;HPM_P1;HPM_P2
2024/01/04 00:01:34;;;;;;;0.10;0.10;;;7.50;99.90;;;;;;4962029;28;20039;-70
2024/01/04 00:03:59;;;;;;;0.10;0.10;;;7.50;99.90;;;;;;4950515;28;20082;-70
2024/01/04 00:06:25;;;;;;;0.10;0.10;;;7.40;99.90;;;;;;4963195;28;20463;-70
2024/01/04 00:08:51;;;;;;;0.00;0.00;;;7.40;99.90;;;;;;4963856;28;20035;-70
2024/01/04 00:11:16;;;;;;;0.10;0.10;;;7.50;99.90;;;;;;4960321;28;20143;-70
2024/01/04 00:13:42;;;;;;;0.10;0.10;;;7.50;99.90;;;;;;4970062;28;20096;-70
2024/01/04 00:16:11;;;;;;;0.10;0.10;;;7.40;99.90;;;;;;4965346;28;20130;-70
2024/01/04 00:18:37;;;;;;;0.10;0.10;;;7.40;99.90;;;;;;4965037;28;20058;-70
2024/01/04 00:21:03;;;;;;;0.05;0.05;;;7.40;99.90;;;;;;4969815;28;20070;-70
2024/01/04 00:23:28;;;;;;;0.10;0.10;;;7.40;99.90;;;;;;4960209;28;20146;-70
2024/01/04 00:25:54;;;;;;;0.10;0.10;;;7.40;99.90;;;;;;4958484;28;20039;-70
2024/01/04 00:28:20;;;;;;;0.10;0.10;;;7.40;99.90;;;;;;4996829;28;20046;-70
2024/01/04 00:30:45;;;;;;;0.10;0.10;;;7.40;99.90;;;;;;4997869;28;20810;-70
2024/01/04 00:33:11;;;;;;;0.10;0.10;;;7.40;99.90;;;;;;4955780;28;20503;-70
2024/01/04 00:35:36;;;;;;;0.10;0.10;;;7.40;99.90;;;;;;4963572;28;20101;-70
2024/01/04 00:38:02;;;;;;;0.10;0.10;;;7.30;99.90;;;;;;4968917;28;20047;-69
2024/01/04 00:40:32;;;;;;;0.10;0.10;;;7.40;99.90;;;;;;4959833;28;20031;-70
2024/01/04 00:42:58;;;;;;;0.00;0.00;;;7.40;99.90;;;;;;4967572;28;20506;-71
2024/01/04 00:45:23;;;;;;;0.00;0.00;;;7.30;99.90;;;;;;4991390;28;20051;-70
2024/01/04 00:47:49;;;;;;;0.00;0.00;;;7.20;99.90;;;;;;4957989;28;20039;-69
2024/01/04 00:50:15;;;;;;;0.10;0.10;;;7.30;99.90;;;;;;4968086;28;20074;-69
2024/01/04 00:52:40;;;;;;;0.10;0.10;;;7.20;99.90;;;;;;4965354;28;20093;-70
2024/01/04 00:55:08;;;;;;;0.43;0.25;;;7.20;99.90;;;;;;4959282;28;20514;-70
2024/01/04 00:57:33;;;;;;;0.10;0.10;;;7.20;99.90;;;;;;4967954;28;20066;-69
2024/01/04 00:59:59;;;;;;;0.10;0.10;;;7.20;99.90;;;;;;4966509;28;20495;-70
2024/01/04 01:02:25;;;;;;;0.10;0.10;;;7.20;99.90;;;;;;4964484;28;20039;-70
2024/01/04 01:04:50;;;;;;;0.00;0.00;;;7.10;99.90;;;;;;4995220;28;20047;-69
2024/01/04 01:07:16;;;;;;;0.40;0.40;;;7.20;99.90;;;;;;4956374;28;20058;-70
2024/01/04 01:09:41;;;;;;;0.10;0.10;;;7.20;99.90;;;;;;4986744;28;21162;-69
2024/01/04 01:12:07;;;;;;;0.00;0.00;;;7.20;99.90;;;;;;4968377;28;20046;-70
2024/01/04 01:14:33;;;;;;;0.00;0.00;;;7.20;99.90;;;;;;4955253;28;20039;-69
2024/01/04 01:16:58;;;;;;;0.10;0.10;;;7.10;99.90;;;;;;4968972;28;20125;-69
2024/01/04 01:19:24;;;;;;;0.20;0.20;;;7.10;99.90;;;;;;4995479;28;20215;-69
2024/01/04 01:21:49;;;;;;;0.00;0.00;;;7.20;99.90;;;;;;4966637;28;20050;-69
2024/01/04 01:24:15;;;;;;;0.10;0.10;;;7.10;99.90;;;;;;4971696;28;20059;-69
2024/01/04 01:26:43;;;;;;;0.10;0.10;;;7.20;99.90;;;;;;4971890;28;20153;-69
2024/01/04 01:29:09;;;;;;;0.10;0.10;;;7.10;99.90;;;;;;4961734;28;20058;-69
2024/01/04 01:31:42;;;;;;;0.52;0.52;;;7.10;99.90;;;;;;4964356;28;20035;-70
2024/01/04 01:34:08;;;;;;;0.50;0.50;;;7.10;99.90;;;;;;4995905;28;20564;-70
2024/01/04 01:36:34;;;;;;;0.00;0.00;;;7.00;99.90;;;;;;4967778;28;20163;-70
2024/01/04 01:38:59;;;;;;;0.10;0.10;;;7.00;99.90;;;;;;4964993;28;20047;-70
2024/01/04 01:41:25;;;;;;;0.10;0.10;;;7.00;99.90;;;;;;4964026;28;20098;-70
2024/01/04 01:43:51;;;;;;;0.00;0.00;;;7.00;99.90;;;;;;4964729;28;20466;-70
2024/01/04 01:46:17;;;;;;;1.05;1.05;;;7.00;99.90;;;;;;4970668;28;20057;-70
2024/01/04 01:48:43;;;;;;;0.00;0.00;;;7.00;99.90;;;;;;4995764;28;20133;-70
2024/01/04 01:51:10;;;;;;;0.10;0.10;;;7.00;99.90;;;;;;4958755;28;20158;-70
2024/01/04 01:53:35;;;;;;;0.10;0.10;;;6.90;99.90;;;;;;4964088;28;20380;-70
2024/01/04 01:56:01;;;;;;;0.10;0.10;;;7.00;99.90;;;;;;4971601;28;20092;-70
2024/01/04 01:58:27;;;;;;;0.10;0.10;;;6.90;99.90;;;;;;4962474;28;20491;-70
2024/01/04 02:00:53;;;;;;;0.00;0.00;;;6.90;99.90;;;;;;4967097;28;20091;-70
2024/01/04 02:03:19;;;;;;;0.00;0.00;;;7.00;99.90;;;;;;4973822;28;20098;-70
2024/01/04 02:05:45;;;;;;;0.10;0.10;;;7.00;99.90;;;;;;4998419;28;20059;-70
2024/01/04 02:08:10;;;;;;;0.10;0.10;;;6.90;99.90;;;;;;4998365;28;20041;-70
2024/01/04 02:10:36;;;;;;;0.00;0.00;;;6.90;99.90;;;;;;4967587;28;20055;-70
2024/01/04 02:13:02;;;;;;;0.10;0.10;;;7.00;99.90;;;;;;4965779;28;20122;-70
2024/01/04 02:15:27;;;;;;;0.10;0.10;;;6.90;99.90;;;;;;4965976;28;20132;-70
2024/01/04 02:17:53;;;;;;;0.10;0.10;;;6.90;99.90;;;;;;4962167;28;20050;-70
2024/01/04 02:20:19;;;;;;;0.10;0.10;;;6.90;99.90;;;;;;4967713;28;20046;-70
2024/01/04 02:22:45;;;;;;;0.00;0.00;;;6.90;99.90;;;;;;4966767;28;20043;-70
2024/01/04 02:25:11;;;;;;;0.10;0.10;;;6.90;99.90;;;;;;4963260;28;20055;-70
2024/01/04 02:27:36;;;;;;;0.20;0.20;;;6.90;99.90;;;;;;4993057;28;20039;-70
2024/01/04 02:30:03;;;;;;;0.05;0.05;;;6.90;99.90;;;;;;4963987;28;20097;-70
2024/01/04 02:32:28;;;;;;;0.10;0.10;;;6.90;99.90;;;;;;4965542;28;20085;-71
2024/01/04 02:34:54;;;;;;;0.10;0.10;;;6.80;99.90;;;;;;4965855;28;20066;-70
2024/01/04 02:37:19;;;;;;;0.10;0.10;;;6.70;99.90;;;;;;4957232;28;20050;-70
2024/01/04 02:39:45;;;;;;;0.10;0.10;;;6.80;99.90;;;;;;4962925;28;20082;-70
2024/01/04 02:42:11;;;;;;;0.00;0.00;;;6.80;99.90;;;;;;4967825;28;20057;-70
2024/01/04 02:44:36;;;;;;;0.10;0.10;;;6.80;99.90;;;;;;4960525;28;20049;-70
2024/01/04 02:47:02;;;;;;;0.10;0.10;;;6.80;99.90;;;;;;4969731;28;20054;-70
2024/01/04 02:49:27;;;;;;;0.10;0.10;;;6.80;99.90;;;;;;4964425;28;20094;-70
2024/01/04 02:51:53;;;;;;;1.33;0.95;;;6.80;99.90;;;;;;4958250;28;20094;-70
2024/01/04 02:54:18;;;;;;;0.10;0.10;;;6.80;99.90;;;;;;4971041;28;20069;-70
2024/01/04 02:56:44;;;;;;;0.10;0.10;;;6.80;99.90;;;;;;4988975;28;20038;-70
2024/01/04 02:59:09;;;;;;;0.10;0.10;;;6.70;99.90;;;;;;4990095;28;20514;-70
2024/01/04 03:01:36;;;;;;;0.10;0.10;;;6.70;99.90;;;;;;4999963;28;20059;-70
2024/01/04 03:04:01;;;;;;;0.10;0.10;;;6.70;99.90;;;;;;4965103;28;20043;-71
2024/01/04 03:06:27;;;;;;;0.10;0.10;;;6.60;99.90;;;;;;4964091;28;20045;-70
2024/01/04 03:08:54;;;;;;;0.10;0.10;;;6.50;99.90;;;;;;4969639;28;20047;-70
2024/01/04 03:11:20;;;;;;;0.10;0.10;;;6.50;99.90;;;;;;4959020;28;20570;-70
2024/01/04 03:13:49;;;;;;;0.10;0.10;;;6.50;99.90;;;;;;4986984;28;20420;-70
2024/01/04 03:16:15;;;;;;;0.52;0.52;;;6.40;99.90;;;;;;4998232;28;20475;-70
2024/01/04 03:18:41;;;;;;;0.10;0.10;;;6.40;99.90;;;;;;4970300;28;20051;-70
2024/01/04 03:21:08;;;;;;;0.10;0.10;;;6.40;99.90;;;;;;4956946;28;20038;-70
2024/01/04 03:23:33;;;;;;;0.10;0.10;;;6.40;99.90;;;;;;4969043;28;20050;-70
2024/01/04 03:25:59;;;;;;;0.10;0.10;;;6.40;99.90;;;;;;4961903;28;20508;-70
2024/01/04 03:28:24;;;;;;;0.10;0.10;;;6.40;99.90;;;;;;4966557;28;20455;-71
2024/01/04 03:30:50;;;;;;;0.10;0.10;;;6.40;99.90;;;;;;4961060;28;20133;-70
2024/01/04 03:33:16;;;;;;;0.10;0.10;;;6.50;99.90;;;;;;4957430;28;20031;-70
2024/01/04 03:35:41;;;;;;;0.10;0.10;;;6.50;99.90;;;;;;4965960;28;20093;-70
2024/01/04 03:38:07;;;;;;;0.10;0.10;;;6.40;99.90;;;;;;4968209;28;20125;-70
2024/01/04 03:40:32;;;;;;;0.10;0.10;;;6.40;99.90;;;;;;4965195;28;20522;-70
2024/01/04 03:42:58;;;;;;;0.10;0.10;;;6.40;99.90;;;;;;4997366;28;20038;-68
2024/01/04 03:45:23;;;;;;;0.10;0.10;;;6.40;99.90;;;;;;4966860;28;20057;-68
2024/01/04 03:47:49;;;;;;;0.10;0.10;;;6.30;99.90;;;;;;4965686;28;20046;-68
2024/01/04 03:50:15;;;;;;;0.10;0.10;;;6.30;99.90;;;;;;4964790;28;20050;-68
2024/01/04 03:52:40;;;;;;;0.10;0.10;;;6.20;99.90;;;;;;4995359;28;20495;-68
2024/01/04 03:55:06;;;;;;;0.10;0.10;;;6.10;99.90;;;;;;4967989;28;20607;-68
2024/01/04 03:57:32;;;;;;;0.10;0.10;;;6.10;99.90;;;;;;4967329;28;20101;-68
2024/01/04 03:59:58;;;;;;;0.10;0.10;;;6.20;99.90;;;;;;4968502;28;20487;-68
2024/01/04 04:02:23;;;;;;;0.10;0.10;;;6.30;99.90;;;;;;4994685;28;20050;-68
2024/01/04 04:04:49;;;;;;;0.10;0.10;;;6.30;99.90;;;;;;4969147;28;20062;-68
2024/01/04 04:07:15;;;;;;;0.10;0.10;;;6.30;99.90;;;;;;4968019;28;20054;-68
2024/01/04 04:09:40;;;;;;;0.52;0.52;;;6.30;99.90;;;;;;4958597;28;20043;-68
2024/01/04 04:12:06;;;;;;;0.10;0.10;;;6.30;99.90;;;;;;4964385;28;20078;-68
2024/01/04 04:14:33;;;;;;;0.10;0.10;;;6.30;99.90;;;;;;4967680;28;20039;-69
2024/01/04 04:17:00;;;;;;;0.10;0.10;;;6.30;99.90;;;;;;4959856;28;20050;-68
2024/01/04 04:19:27;;;;;;;0.10;0.10;;;6.30;99.90;;;;;;4966530;28;20654;-68
2024/01/04 04:21:52;;;;;;;0.10;0.10;;;6.30;99.90;;;;;;4970441;28;20055;-68
2024/01/04 04:24:18;;;;;;;0.10;0.10;;;6.30;99.90;;;;;;4968367;28;20038;-68
2024/01/04 04:26:44;;;;;;;0.00;0.00;;;6.30;99.90;;;;;;4961120;28;20102;-68
2024/01/04 04:29:09;;;;;;;0.10;0.10;;;6.30;99.90;;;;;;4967556;28;20042;-68
2024/01/04 04:31:35;;;;;;;0.10;0.10;;;6.20;99.90;;;;;;4967124;28;20062;-68
2024/01/04 04:34:00;;;;;;;0.10;0.10;;;6.10;99.90;;;;;;4957371;28;20050;-68
2024/01/04 04:36:26;;;;;;;0.10;0.10;;;6.10;99.90;;;;;;4965492;28;20055;-68
2024/01/04 04:38:52;;;;;;;0.10;0.10;;;6.00;99.90;;;;;;4964871;28;20129;-68
2024/01/04 04:41:17;;;;;;;0.10;0.10;;;6.00;99.90;;;;;;4965586;28;20142;-68
2024/01/04 04:43:43;;;;;;;0.10;0.10;;;6.00;99.90;;;;;;4965114;28;20059;-68
2024/01/04 04:46:10;;;;;;;0.00;0.00;;;5.90;99.90;;;;;;4965478;28;20062;-68
2024/01/04 04:48:36;;;;;;;0.05;0.05;;;5.90;99.90;;;;;;4996703;28;20542;-68
2024/01/04 04:51:03;;;;;;;0.10;0.10;;;5.80;99.90;;;;;;4962530;28;20138;-68
2024/01/04 04:53:28;;;;;;;0.10;0.10;;;5.80;99.90;;;;;;4958231;28;20105;-68
2024/01/04 04:55:54;;;;;;;0.10;0.10;;;5.70;99.90;;;;;;4969230;28;20079;-68
2024/01/04 04:58:19;;;;;;;0.10;0.10;;;5.80;99.90;;;;;;4966603;28;20086;-68
2024/01/04 05:00:45;;;;;;;0.10;0.10;;;5.70;99.90;;;;;;4995717;28;20061;-68
2024/01/04 05:03:10;;;;;;;0.10;0.10;;;5.80;99.90;;;;;;4962406;28;20495;-68
2024/01/04 05:05:36;;;;;;;0.10;0.10;;;5.90;99.90;;;;;;4971659;28;20091;-68
2024/01/04 05:08:04;;;;;;;0.10;0.10;;;5.90;99.90;;;;;;4959674;28;20102;-68
2024/01/04 05:10:30;;;;;;;0.10;0.10;;;5.90;99.90;;;;;;4958814;28;20587;-68
2024/01/04 05:12:57;;;;;;;0.10;0.10;;;5.90;99.90;;;;;;4989598;28;20138;-68
2024/01/04 05:15:23;;;;;;;0.10;0.10;;;5.80;99.90;;;;;;4965203;28;20051;-68
2024/01/04 05:17:48;;;;;;;0.10;0.10;;;5.80;99.90;;;;;;4993156;28;20058;-68
2024/01/04 05:20:15;;;;;;;0.10;0.10;;;5.80;99.90;;;;;;4965860;28;20049;-68
2024/01/04 05:22:41;;;;;;;2.17;1.15;;;5.90;99.90;;;;;;4961089;28;20491;-68
2024/01/04 05:25:07;;;;;;;0.10;0.10;;;5.80;99.90;;;;;;4996850;28;20050;-69
2024/01/04 05:27:33;;;;;;;0.10;0.10;;;5.80;99.90;;;;;;4965645;28;20157;-69
2024/01/04 05:29:58;;;;;;;0.10;0.10;;;5.80;99.90;;;;;;4969193;28;20078;-69
2024/01/04 05:32:24;;;;;;;0.10;0.10;;;5.80;99.90;;;;;;4960001;28;20057;-70
2024/01/04 05:34:49;;;;;;;0.10;0.10;;;5.80;99.90;;;;;;4962939;28;20069;-69
2024/01/04 05:37:15;;;;;;;0.10;0.10;;;5.80;99.90;;;;;;4961951;28;20077;-69
2024/01/04 05:39:42;;;;;;;0.00;0.00;;;5.80;99.90;;;;;;4972248;28;20439;-69
2024/01/04 05:42:08;;;;;;;0.47;0.47;;;5.80;99.90;;;;;;4961825;28;20055;-69
2024/01/04 05:44:33;;;;;;;0.10;0.10;;;5.80;99.90;;;;;;4959379;28;20043;-69
2024/01/04 05:46:59;;;;;;;0.17;0.17;;;5.90;99.90;;;;;;4969914;28;20491;-69
2024/01/04 05:49:24;;;;;;;0.10;0.10;;;5.90;99.90;;;;;;4973631;28;20039;-69
2024/01/04 05:51:50;;;;;;;0.10;0.10;;;5.90;99.90;;;;;;4965911;28;20152;-69
2024/01/04 05:54:15;;;;;;;0.10;0.10;;;5.90;99.90;;;;;;4972031;28;20053;-69
2024/01/04 05:56:43;;;;;;;0.52;0.52;;;6.00;99.90;;;;;;4965590;28;20141;-69
2024/01/04 05:59:08;;;;;;;0.30;0.30;;;6.00;99.90;;;;;;4962064;28;20053;-69
2024/01/04 06:01:36;;;;;;;0.10;0.10;;;6.00;99.90;;;;;;4994428;28;20050;-69
2024/01/04 06:04:02;;;;;;;0.10;0.10;;;6.00;99.90;;;;;;4970840;28;20051;-69
2024/01/04 06:06:27;;;;;;;5.32;2.67;;;6.00;99.90;;;;;;4969436;28;20403;-69
2024/01/04 06:08:53;;;;;;;1.00;0.80;;;6.10;99.90;;;;;;4964264;28;20046;-69
2024/01/04 06:11:18;;;;;;;0.10;0.10;;;6.10;99.90;;;;;;4966430;28;20042;-69
2024/01/04 06:13:44;;;;;;;0.10;0.10;;;6.00;99.90;;;;;;4965226;28;20803;-69
2024/01/04 06:16:10;;;;;;;0.10;0.10;;;6.10;99.90;;;;;;4993414;28;20122;-69
2024/01/04 06:18:36;;;;;;;0.10;0.10;;;6.10;99.90;;;;;;4971333;28;20070;-70
2024/01/04 06:21:02;;;;;;;0.10;0.10;;;6.10;99.90;;;;;;4963283;28;20073;-69
2024/01/04 06:23:29;;;;;;;0.10;0.10;;;6.10;99.90;;;;;;4958708;28;20093;-69
2024/01/04 06:25:55;;;;;;;0.10;0.10;;;6.10;99.90;;;;;;4997566;28;20046;-69
2024/01/04 06:28:21;;;;;;;0.10;0.10;;;6.10;99.90;;;;;;4955584;28;20624;-68
2024/01/04 06:30:47;;;;;;;0.10;0.10;;;6.10;99.90;;;;;;4965097;28;20046;-68
2024/01/04 06:33:13;;;;;;;0.15;0.15;;;6.10;99.90;;;;;;4969962;28;20050;-68
2024/01/04 06:35:38;;;;;;;0.00;0.00;;;6.10;99.90;;;;;;4961691;28;20113;-69
2024/01/04 06:38:07;;;;;;;0.10;0.10;;;6.10;99.90;;;;;;4967995;28;20035;-69
2024/01/04 06:40:40;;;;;;;0.10;0.10;;;6.10;99.90;;;;;;4965792;28;20051;-69
2024/01/04 06:43:09;;;;;;;2.83;2.05;;;6.10;99.90;;;;;;4960886;28;20205;-69
2024/01/04 06:45:36;;;;;;;0.05;0.05;;;6.10;99.90;;;;;;4963567;28;20061;-69
2024/01/04 06:48:02;;;;;;;0.10;0.10;;;6.10;99.90;;;;;;4971212;28;20435;-69
2024/01/04 06:50:28;;;;;;;1.17;1.05;;;6.10;99.90;;;;;;4968175;28;20051;-69
2024/01/04 06:52:54;;;;;;;0.00;0.00;;;6.10;99.90;;;;;;4966239;28;20043;-68
2024/01/04 06:55:19;;;;;;;0.22;0.22;;;6.10;99.90;;;;;;4997741;28;20050;-68
2024/01/04 06:57:45;;;;;;;0.10;0.10;;;6.10;99.90;;;;;;4968288;28;20081;-68
2024/01/04 07:00:11;;;;;;;0.10;0.10;;;6.10;99.90;;;;;;4956978;28;20041;-68
2024/01/04 07:02:37;;;;;;;0.10;0.10;;;6.10;99.90;;;;;;4999891;28;20058;-68
2024/01/04 07:05:03;;;;;;;0.10;0.10;;;6.10;99.90;;;;;;4996600;28;20051;-68
2024/01/04 07:07:30;;;;;;;0.10;0.10;;;6.10;99.90;;;;;;4997757;28;20054;-69
2024/01/04 07:09:56;;;;;;;0.10;0.10;;;6.10;99.90;;;;;;4964743;28;20475;-69
2024/01/04 07:12:22;;;;;;;0.20;0.20;;;6.10;99.90;;;;;;4963797;28;20057;-68
2024/01/04 07:14:47;;;;;;;0.10;0.10;;;6.00;99.90;;;;;;4965597;28;20047;-69
2024/01/04 07:17:14;;;;;;;0.20;0.20;;;6.10;99.90;;;;;;4967862;28;20046;-68
2024/01/04 07:19:43;;;;;;;0.10;0.10;;;6.10;99.90;;;;;;5001339;28;20462;-69
2024/01/04 07:22:12;;;;;;;0.10;0.10;;;6.10;99.90;;;;;;4959065;28;20046;-69
2024/01/04 07:24:38;;;;;;;0.10;0.10;;;6.00;99.90;;;;;;4958932;28;20055;-68
2024/01/04 07:27:04;;;;;;;0.10;0.10;;;6.00;99.90;;;;;;4965855;28;20094;-69
2024/01/04 07:29:31;;;;;;;0.00;0.00;;;6.00;99.90;;;;;;4968641;28;20069;-69
2024/01/04 07:31:56;;;;;;;0.00;0.00;;;6.00;99.90;;;;;;4963985;28;20074;-69
2024/01/04 07:34:22;;;;;;;0.10;0.10;;;6.00;99.90;;;;;;4964711;28;20080;-69
2024/01/04 07:36:48;;;;;;;0.10;0.10;;;6.00;99.90;;;;;;4961122;28;20046;-69
2024/01/04 07:39:16;;;;;;;0.10;0.10;;;6.00;99.90;;;;;;4967927;28;20050;-69
2024/01/04 07:41:43;;;;;;;0.10;0.10;;;6.00;99.90;;;;;;4965327;28;20623;-69
2024/01/04 07:44:09;;;;;;;0.10;0.10;;;5.90;99.90;;;;;;4961856;28;20055;-69
2024/01/04 07:46:35;;;;;;;0.00;0.00;;;5.90;99.90;;;;;;4968141;28;20035;-69
2024/01/04 07:49:01;;;;;;;0.10;0.10;;;5.90;99.90;;;;;;4971675;28;20050;-69
2024/01/04 07:51:27;;;;;;;1.08;0.68;;;5.90;99.90;;;;;;4958440;28;20395;-69
2024/01/04 07:53:52;;;;;;;0.00;0.00;;;5.90;99.90;;;;;;4993909;28;20053;-69
2024/01/04 07:56:18;;;;;;;0.10;0.10;;;5.90;99.90;;;;;;4958238;28;20046;-68
2024/01/04 07:58:43;;;;;;;0.10;0.10;;;5.90;99.90;;;;;;4957355;28;20137;-69
2024/01/04 08:01:09;;;;;;;0.10;0.10;;;5.90;99.90;;;;;;4961433;28;20055;-68
2024/01/04 08:03:34;;;;;;;0.10;0.10;;;5.90;99.90;;;;;;4962392;28;20063;-68
2024/01/04 08:06:00;;;;;;;0.10;0.10;;;5.90;99.90;;;;;;4969228;28;20053;-68
2024/01/04 08:08:28;;;;;;;0.10;0.10;;;5.90;99.90;;;;;;4951611;28;20492;-69
2024/01/04 08:10:54;;;;;;;0.10;0.10;;;5.90;99.90;;;;;;4996846;28;20054;-68
2024/01/04 08:13:20;;;;;;;0.10;0.10;;;5.80;99.90;;;;;;4960126;28;20043;-68
2024/01/04 08:15:45;;;;;;;0.10;0.10;;;5.90;99.90;;;;;;4968024;28;20506;-69
2024/01/04 08:18:11;;;;;;;0.10;0.10;;;5.90;99.90;;;;;;4960381;28;20077;-68
2024/01/04 08:20:36;;;;;;;0.00;0.00;;;5.90;99.90;;;;;;4962251;28;20077;-69
2024/01/04 08:23:03;;;;;;;0.03;0.03;;;5.90;99.90;;;;;;4964298;28;20051;-68
2024/01/04 08:25:28;;;;;;;5.45;0.52;;;5.90;99.90;;;;;;4965175;28;20054;-69
2024/01/04 08:27:55;;;;;;;0.10;0.10;;;5.90;99.90;;;;;;4960940;28;20106;-69
2024/01/04 08:30:20;;;;;;;0.10;0.10;;;5.90;99.90;;;;;;4967974;28;20170;-68
2024/01/04 08:32:46;;;;;;;0.10;0.10;;;5.90;99.90;;;;;;4966749;28;20534;-69
2024/01/04 08:35:11;;;;;;;0.00;0.00;;;5.90;99.90;;;;;;4964814;28;20043;-68
2024/01/04 08:37:37;;;;;;;0.00;0.00;;;5.90;99.90;;;;;;4967647;28;20047;-68
2024/01/04 08:40:04;;;;;;;0.10;0.10;;;5.90;99.90;;;;;;4965790;28;20110;-69
2024/01/04 08:42:30;;;;;;;0.10;0.10;;;5.90;99.90;;;;;;4965114;28;20065;-69
2024/01/04 08:44:57;;;;;;;0.10;0.10;;;6.00;99.90;;;;;;4970768;28;20047;-68
2024/01/04 08:47:23;;;;;;;0.00;0.00;;;6.00;99.90;;;;;;4966207;28;20514;-69
2024/01/04 08:49:49;;;;;;;0.30;0.30;;;6.00;99.90;;;;;;4974003;28;20046;-69
2024/01/04 08:52:15;;;;;;;0.00;0.00;;;6.10;99.90;;;;;;4963815;28;20090;-69
2024/01/04 08:54:41;;;;;;;0.10;0.10;;;6.10;99.90;;;;;;4968902;28;20046;-69
2024/01/04 08:57:07;;;;;;;1.30;1.20;;;6.00;99.90;;;;;;4964897;28;20511;-69
2024/01/04 08:59:34;;;;;;;0.10;0.10;;;6.00;99.90;;;;;;4968762;28;20047;-69
2024/01/04 09:01:59;;;;;;;0.10;0.10;;;6.10;99.90;;;;;;4993786;28;20085;-68
2024/01/04 09:04:25;;;;;;;0.30;0.30;;;6.10;99.90;;;;;;4964987;28;20078;-69
2024/01/04 09:06:50;;;;;;;0.10;0.10;;;6.10;99.90;;;;;;4965534;28;20041;-69
2024/01/04 09:09:16;;;;;;;0.13;0.13;;;6.10;99.90;;;;;;4963961;28;20038;-69
2024/01/04 09:11:48;;;;;;;0.00;0.00;;;6.10;99.90;;;;;;4962492;28;20065;-68
2024/01/04 09:14:14;;;;;;;0.10;0.10;;;6.10;99.90;;;;;;4970706;28;20046;-69
2024/01/04 09:16:40;;;;;;;0.10;0.10;;;6.10;99.90;;;;;;4965669;28;20093;-68
2024/01/04 09:19:07;;;;;;;0.10;0.10;;;6.20;99.90;;;;;;4968195;28;20089;-69
2024/01/04 09:21:32;;;;;;;0.10;0.10;;;6.20;99.90;;;;;;4970464;28;20594;-68
2024/01/04 09:23:58;;;;;;;0.10;0.10;;;6.20;99.90;;;;;;4970010;28;20066;-69
2024/01/04 09:26:24;;;;;;;0.10;0.10;;;6.20;99.90;;;;;;4970504;28;20479;-69
2024/01/04 09:28:49;;;;;;;0.10;0.10;;;6.20;99.90;;;;;;4962563;28;20046;-69
2024/01/04 09:31:15;;;;;;;0.10;0.10;;;6.20;99.90;;;;;;4969998;28;20446;-69
2024/01/04 09:33:40;;;;;;;0.10;0.10;;;6.30;99.90;;;;;;4964565;28;20043;-69
2024/01/04 09:36:07;;;;;;;0.10;0.10;;;6.30;99.90;;;;;;4960931;28;20039;-69
2024/01/04 09:38:34;;;;;;;0.10;0.10;;;6.30;99.90;;;;;;4976427;28;20050;-68
2024/01/04 09:41:15;;;;;;;0.10;0.10;;;6.20;99.90;;;;;;4966333;28;20129;-68
2024/01/04 09:43:41;;;;;;;0.30;0.30;;;6.30;99.90;;;;;;4969393;28;20059;-68
2024/01/04 09:46:12;;;;;;;0.10;0.10;;;6.30;99.90;;;;;;4962582;28;20038;-68
2024/01/04 09:48:42;;;;;;;0.10;0.10;;;6.40;99.90;;;;;;4994732;28;20050;-66
2024/01/04 09:51:08;;;;;;;0.03;0.03;;;6.40;99.90;;;;;;4967006;28;20039;-68
2024/01/04 09:53:35;;;;;;;0.10;0.10;;;6.30;99.90;;;;;;4973982;28;20074;-69
2024/01/04 09:56:03;;;;;;;0.10;0.10;;;6.40;99.90;;;;;;4961833;28;20083;-69
2024/01/04 09:58:29;;;;;;;0.10;0.10;;;6.30;99.90;;;;;;4960060;28;20137;-68
2024/01/04 10:00:57;;;;;;;0.10;0.10;;;6.40;99.90;;;;;;4963212;28;20043;-67
2024/01/04 10:03:25;;;;;;;0.00;0.00;;;6.40;99.90;;;;;;4961349;28;20047;-67
2024/01/04 10:05:51;;;;;;;0.10;0.10;;;6.40;99.90;;;;;;4968721;28;20660;-67
2024/01/04 10:08:36;;;;;;;0.10;0.10;;;6.50;99.90;;;;;;4967023;28;20047;-66
2024/01/04 10:11:12;;;;;;;0.10;0.10;;;6.50;99.90;;;;;;4972453;28;20072;-67
2024/01/04 10:13:39;;;;;;;0.00;0.00;;;6.50;99.90;;;;;;4965054;28;20043;-68
2024/01/04 10:16:05;;;;;;;0.10;0.10;;;6.50;99.90;;;;;;4958334;28;20050;-67
2024/01/04 10:18:35;;;;;;;0.10;0.10;;;6.50;99.90;;;;;;4961030;28;20047;-67
2024/01/04 10:21:03;;;;;;;0.10;0.10;;;6.60;99.90;;;;;;4969812;28;20070;-69
2024/01/04 10:23:29;;;;;;;0.10;0.10;;;6.60;99.90;;;;;;4959044;28;20054;-69
2024/01/04 10:26:17;;;;;;;0.10;0.10;;;6.60;99.90;;;;;;4962331;28;20166;-68
2024/01/04 10:28:42;;;;;;;0.10;0.10;;;6.60;99.90;;;;;;4957456;28;20055;-68
2024/01/04 10:31:08;;;;;;;0.10;0.10;;;6.50;99.90;;;;;;4948797;28;20046;-68
2024/01/04 10:33:38;;;;;;;0.10;0.10;;;6.50;99.90;;;;;;4959876;28;20047;-68
2024/01/04 10:36:11;;;;;;;0.10;0.10;;;6.50;99.90;;;;;;4964117;28;20058;-68
2024/01/04 10:38:37;;;;;;;0.10;0.10;;;6.40;99.90;;;;;;4957841;28;20042;-68
2024/01/04 10:41:04;;;;;;;0.30;0.30;;;6.40;99.90;;;;;;4966304;28;20047;-68
2024/01/04 10:43:31;;;;;;;0.00;0.00;;;6.40;99.90;;;;;;4991563;28;20043;-68
2024/01/04 10:46:08;;;;;;;0.43;0.43;;;6.50;99.90;;;;;;4959041;28;20125;-68
2024/01/04 10:48:41;;;;;;;0.10;0.10;;;6.50;99.90;;;;;;4965215;28;20108;-68
2024/01/04 10:51:09;;;;;;;0.13;0.13;;;6.50;99.90;;;;;;4962391;28;20047;-68
2024/01/04 10:53:37;;;;;;;0.10;0.10;;;6.50;99.90;;;;;;4956633;28;20483;-68
2024/01/04 10:56:04;;;;;;;0.10;0.10;;;6.50;99.90;;;;;;4964766;28;20169;-68
2024/01/04 10:58:34;;;;;;;0.10;0.10;;;6.50;99.90;;;;;;4959625;28;20070;-68
2024/01/04 11:01:04;;;;;;;0.52;0.52;;;6.60;99.90;;;;;;4968163;28;20463;-68
2024/01/04 11:03:31;;;;;;;0.10;0.10;;;6.60;99.90;;;;;;4959546;28;20070;-68
2024/01/04 11:06:00;;;;;;;0.10;0.10;;;6.70;99.90;;;;;;4966808;28;20495;-68
2024/01/04 11:08:27;;;;;;;0.10;0.10;;;6.60;99.90;;;;;;4968424;28;20126;-68
2024/01/04 11:10:58;;;;;;;0.30;0.30;;;6.60;99.90;;;;;;4983247;28;20058;-68
2024/01/04 11:13:24;;;;;;;0.10;0.10;;;6.70;99.90;;;;;;4966439;28;20062;-67
2024/01/04 11:15:54;;;;;;;0.70;0.70;;;6.70;99.90;;;;;;4973192;28;20054;-68
2024/01/04 11:18:34;;;;;;;0.10;0.10;;;6.80;99.90;;;;;;4965258;28;20114;-68
2024/01/04 11:21:34;;;;;;;0.20;0.20;;;6.80;99.90;;;;;;4989885;28;20059;-68
2024/01/04 11:24:03;;;;;;;0.00;0.00;;;6.80;99.90;;;;;;4967400;28;20145;-68
2024/01/04 11:26:57;;;;;;;0.10;0.10;;;6.80;99.90;;;;;;4988095;28;20144;-68
2024/01/04 11:29:23;;;;;;;0.10;0.10;;;6.90;99.90;;;;;;4964610;28;20059;-68
2024/01/04 11:31:49;;;;;;;0.10;0.10;;;6.90;99.90;;;;;;4968274;28;20076;-68
2024/01/04 11:34:16;;;;;;;0.10;0.10;;;6.80;99.90;;;;;;4964437;28;20443;-68
2024/01/04 11:36:41;;;;;;;0.32;0.32;;;6.80;99.90;;;;;;4964954;28;20831;-67
2024/01/04 11:39:07;;;;;;;0.10;0.10;;;6.90;99.90;;;;;;4964809;28;20039;-68
2024/01/04 11:41:34;;;;;;;0.10;0.10;;;6.80;99.90;;;;;;4961858;28;20043;-68
2024/01/04 11:44:00;;;;;;;0.10;0.10;;;6.80;99.90;;;;;;4965608;28;20101;-68
2024/01/04 11:46:26;;;;;;;0.10;0.10;;;6.80;99.90;;;;;;4992774;28;20486;-68
2024/01/04 11:48:52;;;;;;;0.00;0.00;;;6.80;99.90;;;;;;4959293;28;20117;-68
2024/01/04 11:51:17;;;;;;;0.10;0.10;;;6.80;99.90;;;;;;4996935;28;20530;-68
2024/01/04 11:53:43;;;;;;;0.20;0.20;;;6.80;99.90;;;;;;4963900;28;20046;-68
2024/01/04 11:56:12;;;;;;;0.10;0.10;;;6.80;99.90;;;;;;4956810;28;20122;-67
2024/01/04 11:58:39;;;;;;;0.00;0.00;;;6.80;99.90;;;;;;4961403;28;20054;-68
2024/01/04 12:01:05;;;;;;;0.00;0.00;;;6.80;99.90;;;;;;4965327;28;20043;-69
2024/01/04 12:03:31;;;;;;;0.10;0.10;;;6.80;99.90;;;;;;4961090;28;20061;-68
2024/01/04 12:05:59;;;;;;;0.10;0.10;;;6.80;99.90;;;;;;4962956;28;20043;-68
2024/01/04 12:08:31;;;;;;;0.10;0.10;;;6.80;99.90;;;;;;4996554;28;20049;-68
2024/01/04 12:10:59;;;;;;;0.45;0.45;;;6.80;99.90;;;;;;4956707;28;20047;-68
2024/01/04 12:13:25;;;;;;;0.20;0.20;;;6.90;99.90;;;;;;4958542;28;20039;-68
2024/01/04 12:15:54;;;;;;;0.73;0.30;;;6.90;99.90;;;;;;4963950;28;20039;-68
2024/01/04 12:18:22;;;;;;;0.10;0.10;;;6.90;99.90;;;;;;4958537;28;20074;-68
2024/01/04 12:20:48;;;;;;;0.10;0.10;;;7.00;99.90;;;;;;4965685;28;20053;-68
2024/01/04 12:23:14;;;;;;;0.20;0.20;;;7.00;99.90;;;;;;4958635;28;20399;-68
2024/01/04 12:25:40;;;;;;;0.10;0.10;;;7.00;99.90;;;;;;4958936;28;20110;-67
2024/01/04 12:28:08;;;;;;;0.10;0.10;;;6.80;99.90;;;;;;4952809;28;20769;-67
2024/01/04 12:30:36;;;;;;;0.10;0.10;;;6.90;99.90;;;;;;4965000;28;20057;-68
2024/01/04 12:33:03;;;;;;;0.10;0.10;;;6.90;99.90;;;;;;4954533;28;20051;-68
2024/01/04 12:35:28;;;;;;;0.10;0.10;;;6.90;99.90;;;;;;4967746;28;20101;-68
2024/01/04 12:38:03;;;;;;;0.10;0.10;;;6.80;99.90;;;;;;4968900;28;20498;-68
2024/01/04 12:40:40;;;;;;;0.10;0.10;;;6.80;99.90;;;;;;4961864;28;20039;-68
2024/01/04 12:43:20;;;;;;;0.10;0.10;;;6.80;99.90;;;;;;4961342;28;20046;-68
2024/01/04 12:45:45;;;;;;;0.10;0.10;;;6.80;99.90;;;;;;4996672;28;20058;-68
2024/01/04 12:48:11;;;;;;;0.10;0.10;;;6.80;99.90;;;;;;4966668;28;20043;-68
2024/01/04 12:50:38;;;;;;;0.93;0.93;;;6.90;99.90;;;;;;4954699;28;20044;-68
2024/01/04 12:53:06;;;;;;;0.10;0.10;;;6.90;99.90;;;;;;4988690;28;20047;-68
2024/01/04 12:55:35;;;;;;;0.10;0.10;;;6.90;99.90;;;;;;4998457;28;20047;-68